Time,TemperatureF,DewpointF,PressureIn,WindDirection,WindDirectionDegrees,WindSpeedMPH,WindSpeedGustMPH,Humidity,HourlyPrecipIn,Conditions,Clouds,dailyrainin,SolarRadiationWatts/m^2,SoftwareType,DateUTC
2013-06-18 00:01:00,64.8,61.7,29.91,ESE,105,0.0,1.0,90,0.01,,,0.05,0.0,meteohub,2013-06-18 04:01:00,
2013-06-18 00:02:00,64.8,61.7,29.91,ESE,105,0.0,1.0,90,0.01,,,0.05,0.0,meteohub,2013-06-18 04:02:00,
2013-06-18 00:05:00,64.6,61.5,29.91,ESE,105,0.0,1.0,90,0.01,,,0.00,0.0,meteohub,2013-06-18 04:05:00,
2013-06-18 00:10:00,64.4,61.3,29.92,ESE,105,0.0,0.0,90,0.01,,,0.00,0.0,meteohub,2013-06-18 04:10:00,
2013-06-18 00:15:00,64.2,61.5,29.92,ESE,105,0.0,0.0,91,0.01,,,0.00,0.0,meteohub,2013-06-18 04:15:00,
2013-06-18 00:20:00,64.0,61.3,29.92,ESE,105,0.0,0.0,91,0.01,,,0.00,0.0,meteohub,2013-06-18 04:20:00,
2013-06-18 00:25:00,63.9,61.5,29.92,ESE,105,0.0,1.0,92,0.01,,,0.00,0.0,meteohub,2013-06-18 04:25:00,
2013-06-18 00:30:00,63.7,61.3,29.93,ESE,105,0.0,1.0,92,0.01,,,0.00,0.0,meteohub,2013-06-18 04:30:00,
2013-06-18 00:35:00,63.3,61.0,29.92,ESE,105,0.0,1.0,92,0.01,,,0.00,0.0,meteohub,2013-06-18 04:35:00,
2013-06-18 00:40:00,63.3,61.0,29.92,ESE,105,0.0,1.0,92,0.01,,,0.00,0.0,meteohub,2013-06-18 04:40:00,
2013-06-18 00:45:00,63.3,61.0,29.92,ESE,105,0.0,1.0,92,0.01,,,0.00,0.0,meteohub,2013-06-18 04:45:00,
2013-06-18 00:50:00,63.1,60.8,29.92,ESE,105,0.0,0.0,92,0.01,,,0.00,0.0,meteohub,2013-06-18 04:50:00,
2013-06-18 00:55:00,63.1,60.8,29.92,ESE,105,0.0,0.0,92,0.01,,,0.00,0.0,meteohub,2013-06-18 04:55:00,
2013-06-18 01:01:00,63.1,60.8,29.92,ESE,105,0.0,0.0,92,0.00,,,0.00,0.0,meteohub,2013-06-18 05:01:00,
2013-06-18 01:06:00,63.1,61.2,29.92,ESE,105,0.0,0.0,93,0.00,,,0.00,0.0,meteohub,2013-06-18 05:06:00,
2013-06-18 01:11:00,63.1,61.2,29.92,East,98,0.0,1.0,93,0.00,,,0.00,0.0,meteohub,2013-06-18 05:11:00,
2013-06-18 01:16:00,63.0,61.0,29.92,East,98,0.0,1.0,93,0.00,,,0.00,0.0,meteohub,2013-06-18 05:16:00,
2013-06-18 01:21:00,63.0,61.0,29.92,East,98,0.0,1.0,93,0.00,,,0.00,0.0,meteohub,2013-06-18 05:21:00,
2013-06-18 01:26:00,62.8,60.8,29.92,East,98,0.0,0.0,93,0.00,,,0.00,0.0,meteohub,2013-06-18 05:26:00,
2013-06-18 01:31:00,62.4,60.4,29.92,East,98,0.0,0.0,93,0.00,,,0.00,0.0,meteohub,2013-06-18 05:31:00,
2013-06-18 01:36:00,62.2,60.3,29.92,East,98,0.0,0.0,93,0.00,,,0.00,0.0,meteohub,2013-06-18 05:36:00,
2013-06-18 01:41:00,62.1,60.1,29.92,East,98,0.0,0.0,93,0.00,,,0.00,0.0,meteohub,2013-06-18 05:41:00,
2013-06-18 01:46:00,61.9,59.9,29.92,East,98,0.0,0.0,93,0.00,,,0.00,0.0,meteohub,2013-06-18 05:46:00,
2013-06-18 01:51:00,61.9,59.9,29.92,East,98,0.0,0.0,93,0.00,,,0.00,0.0,meteohub,2013-06-18 05:51:00,
2013-06-18 01:56:00,61.7,59.7,29.91,East,98,0.0,0.0,93,0.00,,,0.00,0.0,meteohub,2013-06-18 05:56:00,
2013-06-18 02:01:00,61.7,59.7,29.91,East,98,0.0,0.0,93,0.00,,,0.00,0.0,meteohub,2013-06-18 06:01:00,
2013-06-18 02:06:00,61.5,59.5,29.91,East,98,0.0,0.0,93,0.00,,,0.00,0.0,meteohub,2013-06-18 06:06:00,
2013-06-18 02:12:00,61.7,59.4,29.91,ESE,103,1.0,1.0,92,0.00,,,0.00,0.0,meteohub,2013-06-18 06:12:00,
2013-06-18 02:17:00,61.7,59.4,29.91,ESE,103,0.0,1.0,92,0.00,,,0.00,0.0,meteohub,2013-06-18 06:17:00,
2013-06-18 02:22:00,61.9,59.2,29.91,ESE,103,0.0,1.0,91,0.00,,,0.00,0.0,meteohub,2013-06-18 06:22:00,
2013-06-18 02:27:00,61.9,59.0,29.91,ESE,103,0.0,1.0,90,0.00,,,0.00,0.0,meteohub,2013-06-18 06:27:00,
2013-06-18 02:32:00,62.1,59.4,29.91,ESE,103,0.0,1.0,91,0.00,,,0.00,0.0,meteohub,2013-06-18 06:32:00,
2013-06-18 02:37:00,62.1,59.2,29.91,ESE,103,0.0,1.0,90,0.00,,,0.00,0.0,meteohub,2013-06-18 06:37:00,
2013-06-18 02:42:00,62.1,59.4,29.90,ESE,103,0.0,1.0,91,0.00,,,0.00,0.0,meteohub,2013-06-18 06:42:00,
2013-06-18 02:47:00,62.1,59.2,29.90,ESE,103,0.0,1.0,90,0.00,,,0.00,0.0,meteohub,2013-06-18 06:47:00,
2013-06-18 02:52:00,62.1,59.2,29.90,ESE,104,1.0,1.0,90,0.00,,,0.00,0.0,meteohub,2013-06-18 06:52:00,
2013-06-18 02:57:00,62.1,58.8,29.90,ESE,103,0.0,1.0,89,0.00,,,0.00,0.0,meteohub,2013-06-18 06:57:00,
2013-06-18 03:02:00,62.1,58.5,29.90,ESE,105,0.0,1.0,88,0.00,,,0.00,0.0,meteohub,2013-06-18 07:02:00,
2013-06-18 03:07:00,62.1,58.8,29.90,ESE,105,0.0,1.0,89,0.00,,,0.00,0.0,meteohub,2013-06-18 07:07:00,
2013-06-18 03:12:00,62.1,58.5,29.90,ESE,105,0.0,1.0,88,0.00,,,0.00,0.0,meteohub,2013-06-18 07:12:00,
2013-06-18 03:17:00,62.1,58.5,29.90,ESE,103,0.0,1.0,88,0.00,,,0.00,0.0,meteohub,2013-06-18 07:17:00,
2013-06-18 03:22:00,62.1,58.8,29.90,ESE,103,0.0,1.0,89,0.00,,,0.00,0.0,meteohub,2013-06-18 07:22:00,
2013-06-18 03:27:00,62.1,59.2,29.89,ESE,103,0.0,1.0,90,0.00,,,0.00,0.0,meteohub,2013-06-18 07:27:00,
2013-06-18 03:32:00,61.9,59.0,29.89,ESE,103,0.0,1.0,90,0.00,,,0.00,0.0,meteohub,2013-06-18 07:32:00,
2013-06-18 03:37:00,61.9,59.0,29.89,ESE,103,0.0,1.0,90,0.00,,,0.00,0.0,meteohub,2013-06-18 07:37:00,
2013-06-18 03:42:00,61.5,58.3,29.89,ESE,103,0.0,1.0,89,0.00,,,0.00,0.0,meteohub,2013-06-18 07:42:00,
2013-06-18 03:47:00,61.5,58.6,29.89,ESE,103,0.0,1.0,90,0.00,,,0.00,0.0,meteohub,2013-06-18 07:47:00,
2013-06-18 03:52:00,61.5,58.8,29.89,ESE,103,0.0,1.0,91,0.00,,,0.00,0.0,meteohub,2013-06-18 07:52:00,
2013-06-18 03:57:00,61.3,58.6,29.89,ESE,103,0.0,1.0,91,0.00,,,0.00,0.0,meteohub,2013-06-18 07:57:00,
2013-06-18 04:02:00,61.3,58.6,29.89,East,93,0.0,3.0,91,0.00,,,0.00,0.0,meteohub,2013-06-18 08:02:00,
2013-06-18 04:07:00,61.3,58.5,29.89,East,93,0.0,3.0,90,0.00,,,0.00,0.0,meteohub,2013-06-18 08:07:00,
2013-06-18 04:12:00,61.3,58.6,29.89,East,93,0.0,3.0,91,0.00,,,0.00,0.0,meteohub,2013-06-18 08:12:00,
2013-06-18 04:17:00,61.3,58.5,29.89,East,93,0.0,1.0,90,0.00,,,0.00,0.0,meteohub,2013-06-18 08:17:00,
2013-06-18 04:22:00,61.2,58.5,29.89,East,93,0.0,1.0,91,0.00,,,0.00,0.0,meteohub,2013-06-18 08:22:00,
2013-06-18 04:27:00,61.2,58.5,29.89,East,93,0.0,1.0,91,0.00,,,0.00,0.0,meteohub,2013-06-18 08:27:00,
2013-06-18 04:32:00,61.0,57.7,29.89,East,93,0.0,1.0,89,0.00,,,0.00,0.0,meteohub,2013-06-18 08:32:00,
2013-06-18 04:37:00,61.0,58.3,29.89,East,93,0.0,0.0,91,0.00,,,0.00,0.0,meteohub,2013-06-18 08:37:00,
2013-06-18 04:42:00,60.6,57.7,29.89,East,93,0.0,0.0,90,0.00,,,0.00,0.0,meteohub,2013-06-18 08:42:00,
2013-06-18 04:47:00,60.4,57.7,29.89,East,93,0.0,0.0,91,0.00,,,0.00,0.0,meteohub,2013-06-18 08:47:00,
2013-06-18 04:52:00,60.4,58.1,29.89,East,93,0.0,1.0,92,0.00,,,0.00,0.0,meteohub,2013-06-18 08:52:00,
2013-06-18 04:57:00,60.3,58.3,29.89,East,93,0.0,1.0,93,0.00,,,0.00,0.0,meteohub,2013-06-18 08:57:00,
2013-06-18 05:02:00,60.3,58.3,29.90,East,93,0.0,1.0,93,0.00,,,0.00,0.0,meteohub,2013-06-18 09:02:00,
2013-06-18 05:07:00,60.1,58.1,29.90,East,93,0.0,1.0,93,0.00,,,0.00,0.0,meteohub,2013-06-18 09:07:00,
2013-06-18 05:12:00,59.9,57.9,29.90,East,93,0.0,1.0,93,0.00,,,0.00,0.0,meteohub,2013-06-18 09:12:00,
2013-06-18 05:17:00,59.7,57.7,29.90,East,93,0.0,0.0,93,0.00,,,0.00,0.0,meteohub,2013-06-18 09:17:00,
2013-06-18 05:22:00,59.5,57.6,29.90,East,93,0.0,0.0,93,0.00,,,0.00,0.0,meteohub,2013-06-18 09:22:00,
2013-06-18 05:27:00,59.4,57.4,29.90,East,93,0.0,0.0,93,0.00,,,0.00,0.0,meteohub,2013-06-18 09:27:00,
2013-06-18 05:32:00,59.2,57.4,29.90,East,93,0.0,1.0,94,0.00,,,0.00,7.0,meteohub,2013-06-18 09:32:00,
2013-06-18 05:37:00,59.2,57.4,29.90,East,93,0.0,1.0,94,0.00,,,0.00,7.0,meteohub,2013-06-18 09:37:00,
2013-06-18 05:42:00,59.2,57.4,29.91,East,93,0.0,1.0,94,0.00,,,0.00,9.0,meteohub,2013-06-18 09:42:00,
2013-06-18 05:47:00,59.0,57.6,29.91,East,93,0.0,1.0,95,0.00,,,0.00,11.0,meteohub,2013-06-18 09:47:00,
2013-06-18 05:52:00,59.0,57.6,29.91,ESE,115,0.0,1.0,95,0.00,,,0.00,21.0,meteohub,2013-06-18 09:52:00,
2013-06-18 05:57:00,59.0,57.2,29.91,ESE,115,0.0,2.0,94,0.00,,,0.00,30.0,meteohub,2013-06-18 09:57:00,
2013-06-18 06:02:00,59.4,57.9,29.91,ESE,115,0.0,2.0,95,0.00,,,0.00,35.0,meteohub,2013-06-18 10:02:00,
2013-06-18 06:07:00,59.4,57.6,29.91,ESE,115,0.0,2.0,94,0.00,,,0.00,39.0,meteohub,2013-06-18 10:07:00,
2013-06-18 06:12:00,59.4,57.6,29.91,ESE,115,0.0,0.0,94,0.00,,,0.00,39.0,meteohub,2013-06-18 10:12:00,
2013-06-18 06:17:00,59.5,58.1,29.91,ESE,115,0.0,0.0,95,0.00,,,0.00,32.0,meteohub,2013-06-18 10:17:00,
2013-06-18 06:22:00,59.5,58.1,29.91,ESE,115,0.0,0.0,95,0.00,,,0.00,26.0,meteohub,2013-06-18 10:22:00,
2013-06-18 06:27:00,59.7,58.3,29.91,ESE,115,0.0,0.0,95,0.00,,,0.00,18.0,meteohub,2013-06-18 10:27:00,
2013-06-18 06:32:00,59.7,57.9,29.91,ESE,115,0.0,0.0,94,0.00,,,0.00,26.0,meteohub,2013-06-18 10:32:00,
2013-06-18 06:37:00,59.7,58.3,29.91,ESE,115,0.0,0.0,95,0.00,,,0.00,44.0,meteohub,2013-06-18 10:37:00,
2013-06-18 06:42:00,59.7,58.3,29.91,ESE,115,0.0,0.0,95,0.00,,,0.00,46.0,meteohub,2013-06-18 10:42:00,
2013-06-18 06:47:00,59.9,58.5,29.91,ESE,115,0.0,0.0,95,0.00,,,0.00,42.0,meteohub,2013-06-18 10:47:00,
2013-06-18 06:52:00,59.9,58.5,29.91,ESE,115,0.0,0.0,95,0.00,,,0.00,49.0,meteohub,2013-06-18 10:52:00,
2013-06-18 06:57:00,60.1,58.6,29.92,ESE,115,0.0,0.0,95,0.00,,,0.00,49.0,meteohub,2013-06-18 10:57:00,
2013-06-18 07:02:00,60.1,58.6,29.92,ESE,115,0.0,0.0,95,0.00,,,0.00,54.0,meteohub,2013-06-18 11:02:00,
2013-06-18 07:07:00,60.3,58.8,29.92,ESE,115,0.0,0.0,95,0.00,,,0.00,63.0,meteohub,2013-06-18 11:07:00,
2013-06-18 07:12:00,60.4,59.0,29.92,ESE,115,0.0,0.0,95,0.00,,,0.00,69.0,meteohub,2013-06-18 11:12:00,
2013-06-18 07:17:00,60.4,59.0,29.92,ESE,115,0.0,0.0,95,0.00,,,0.00,83.0,meteohub,2013-06-18 11:17:00,
2013-06-18 07:22:00,60.8,59.4,29.92,ESE,115,0.0,0.0,95,0.00,,,0.00,91.0,meteohub,2013-06-18 11:22:00,
2013-06-18 07:27:00,61.2,59.7,29.92,ESE,115,0.0,0.0,95,0.00,,,0.00,114.0,meteohub,2013-06-18 11:27:00,
2013-06-18 07:32:00,61.3,59.9,29.93,ESE,115,0.0,0.0,95,0.00,,,0.00,104.0,meteohub,2013-06-18 11:32:00,
2013-06-18 07:37:00,61.7,60.3,29.93,ESE,115,0.0,0.0,95,0.00,,,0.00,98.0,meteohub,2013-06-18 11:37:00,
2013-06-18 07:42:00,62.1,60.3,29.93,ESE,115,0.0,1.0,94,0.00,,,0.00,125.0,meteohub,2013-06-18 11:42:00,
2013-06-18 07:47:00,62.2,60.4,29.93,ESE,115,0.0,1.0,94,0.00,,,0.00,153.0,meteohub,2013-06-18 11:47:00,
2013-06-18 07:52:00,62.6,60.6,29.93,ESE,115,0.0,1.0,93,0.00,,,0.00,135.0,meteohub,2013-06-18 11:52:00,
2013-06-18 07:57:00,63.0,60.6,29.93,ESE,115,0.0,1.0,92,0.00,,,0.00,134.0,meteohub,2013-06-18 11:57:00,
2013-06-18 08:02:00,63.1,60.8,29.93,ESE,115,0.0,0.0,92,0.00,,,0.00,116.0,meteohub,2013-06-18 12:02:00,
2013-06-18 08:07:00,63.3,61.0,29.93,ESE,115,0.0,0.0,92,0.00,,,0.00,146.0,meteohub,2013-06-18 12:07:00,
2013-06-18 08:12:00,63.7,61.3,29.93,ESE,115,0.0,0.0,92,0.00,,,0.00,197.0,meteohub,2013-06-18 12:12:00,
2013-06-18 08:17:00,63.9,61.2,29.93,ESE,115,0.0,0.0,91,0.00,,,0.00,318.0,meteohub,2013-06-18 12:17:00,
2013-06-18 08:22:00,64.2,61.5,29.94,ESE,115,0.0,1.0,91,0.00,,,0.00,345.0,meteohub,2013-06-18 12:22:00,
2013-06-18 08:27:00,64.8,61.7,29.94,SSE,161,0.0,1.0,90,0.00,,,0.00,403.0,meteohub,2013-06-18 12:27:00,
2013-06-18 08:32:00,65.3,62.1,29.94,SSE,156,0.0,2.0,89,0.00,,,0.00,415.0,meteohub,2013-06-18 12:32:00,
2013-06-18 08:37:00,65.8,61.9,29.94,SE,131,0.0,2.0,87,0.00,,,0.00,462.0,meteohub,2013-06-18 12:37:00,
2013-06-18 08:42:00,66.2,61.9,29.94,WNW,294,0.0,2.0,86,0.00,,,0.00,352.0,meteohub,2013-06-18 12:42:00,
2013-06-18 08:47:00,66.4,61.7,29.94,SSE,147,1.0,2.0,85,0.00,,,0.00,258.0,meteohub,2013-06-18 12:47:00,
2013-06-18 08:52:00,66.7,62.4,29.94,South,179,1.0,3.0,86,0.00,,,0.00,248.0,meteohub,2013-06-18 12:52:00,
2013-06-18 08:57:00,66.9,61.9,29.94,East,98,0.0,3.0,84,0.00,,,0.00,255.0,meteohub,2013-06-18 12:57:00,
2013-06-18 09:02:00,66.9,61.5,29.94,East,99,0.0,3.0,83,0.00,,,0.00,357.0,meteohub,2013-06-18 13:02:00,
2013-06-18 09:07:00,67.3,61.9,29.94,East,96,0.0,3.0,83,0.00,,,0.00,408.0,meteohub,2013-06-18 13:07:00,
2013-06-18 09:12:00,67.6,62.6,29.94,East,96,0.0,2.0,84,0.00,,,0.00,336.0,meteohub,2013-06-18 13:12:00,
2013-06-18 09:17:00,68.2,63.5,29.93,East,96,0.0,2.0,85,0.00,,,0.00,295.0,meteohub,2013-06-18 13:17:00,
2013-06-18 09:22:00,68.2,62.8,29.93,East,100,0.0,2.0,83,0.00,,,0.00,279.0,meteohub,2013-06-18 13:22:00,
2013-06-18 09:27:00,68.4,62.2,29.93,East,101,0.0,1.0,81,0.00,,,0.00,302.0,meteohub,2013-06-18 13:27:00,
2013-06-18 09:32:00,68.5,62.4,29.93,SE,141,0.0,2.0,81,0.00,,,0.00,457.0,meteohub,2013-06-18 13:32:00,
2013-06-18 09:37:00,68.7,62.6,29.93,SE,140,0.0,2.0,81,0.00,,,0.00,353.0,meteohub,2013-06-18 13:37:00,
2013-06-18 09:42:00,69.1,63.0,29.93,SE,139,0.0,2.0,81,0.00,,,0.00,380.0,meteohub,2013-06-18 13:42:00,
2013-06-18 09:47:00,69.4,62.6,29.92,SE,138,0.0,1.0,79,0.00,,,0.00,515.0,meteohub,2013-06-18 13:47:00,
2013-06-18 09:52:00,69.6,63.1,29.92,SE,140,1.0,1.0,80,0.00,,,0.00,371.0,meteohub,2013-06-18 13:52:00,
2013-06-18 09:57:00,69.8,63.3,29.92,South,172,1.0,1.0,80,0.00,,,0.00,272.0,meteohub,2013-06-18 13:57:00,
2013-06-18 10:02:00,69.6,63.5,29.92,South,173,0.0,4.0,81,0.00,,,0.00,427.0,meteohub,2013-06-18 14:02:00,
2013-06-18 10:07:00,69.4,63.3,29.92,South,173,0.0,4.0,81,0.00,,,0.00,309.0,meteohub,2013-06-18 14:07:00,
2013-06-18 10:12:00,69.6,63.5,29.92,South,182,0.0,4.0,81,0.00,,,0.00,287.0,meteohub,2013-06-18 14:12:00,
2013-06-18 10:17:00,69.6,64.2,29.92,South,182,0.0,2.0,83,0.00,,,0.00,529.0,meteohub,2013-06-18 14:17:00,
2013-06-18 10:22:00,69.8,63.7,29.92,South,182,0.0,2.0,81,0.00,,,0.00,527.0,meteohub,2013-06-18 14:22:00,
2013-06-18 10:27:00,70.2,64.4,29.91,South,182,0.0,1.0,82,0.00,,,0.00,450.0,meteohub,2013-06-18 14:27:00,
2013-06-18 10:32:00,70.3,63.9,29.91,ESE,123,0.0,1.0,80,0.00,,,0.00,459.0,meteohub,2013-06-18 14:32:00,
2013-06-18 10:37:00,70.9,63.7,29.91,South,190,0.0,2.0,78,0.00,,,0.00,506.0,meteohub,2013-06-18 14:37:00,
2013-06-18 10:42:00,71.1,63.9,29.92,SSE,152,0.0,3.0,78,0.00,,,0.00,522.0,meteohub,2013-06-18 14:42:00,
2013-06-18 10:47:00,71.4,64.2,29.92,SSE,152,0.0,3.0,78,0.00,,,0.00,710.0,meteohub,2013-06-18 14:47:00,
2013-06-18 10:52:00,72.0,64.4,29.92,SSE,152,0.0,3.0,77,0.00,,,0.00,612.0,meteohub,2013-06-18 14:52:00,
2013-06-18 10:57:00,72.0,65.1,29.92,SSE,152,0.0,2.0,79,0.00,,,0.00,538.0,meteohub,2013-06-18 14:57:00,
2013-06-18 11:02:00,72.0,64.0,29.92,South,191,0.0,1.0,76,0.00,,,0.00,425.0,meteohub,2013-06-18 15:02:00,
2013-06-18 11:07:00,72.3,64.4,29.92,SSW,192,1.0,3.0,76,0.00,,,0.00,552.0,meteohub,2013-06-18 15:07:00,
2013-06-18 11:12:00,72.3,63.9,29.92,South,174,0.0,3.0,75,0.00,,,0.00,439.0,meteohub,2013-06-18 15:12:00,
2013-06-18 11:17:00,72.3,63.9,29.91,ESE,106,0.0,3.0,75,0.00,,,0.00,227.0,meteohub,2013-06-18 15:17:00,
2013-06-18 11:22:00,72.0,64.4,29.92,SW,227,2.0,2.0,77,0.00,,,0.00,190.0,meteohub,2013-06-18 15:22:00,
2013-06-18 11:27:00,71.6,63.7,29.91,SE,142,1.0,2.0,76,0.00,,,0.00,169.0,meteohub,2013-06-18 15:27:00,
2013-06-18 11:32:00,71.1,63.9,29.91,South,186,0.0,3.0,78,0.00,,,0.00,104.0,meteohub,2013-06-18 15:32:00,
2013-06-18 11:37:00,70.3,63.5,29.92,SE,124,0.0,5.0,79,0.00,,,0.00,58.0,meteohub,2013-06-18 15:37:00,
2013-06-18 11:42:00,69.6,63.5,29.92,SSE,153,0.0,5.0,81,0.00,,,0.00,49.0,meteohub,2013-06-18 15:42:00,
2013-06-18 11:47:00,69.3,63.1,29.92,SE,142,0.0,4.0,81,0.00,,,0.00,42.0,meteohub,2013-06-18 15:47:00,
2013-06-18 11:52:00,68.9,63.1,29.93,SSW,206,0.0,3.0,82,0.00,,,0.00,14.0,meteohub,2013-06-18 15:52:00,
2013-06-18 11:57:00,68.4,63.7,29.93,ESE,115,1.0,5.0,85,0.00,,,0.00,11.0,meteohub,2013-06-18 15:57:00,
2013-06-18 12:02:00,67.8,63.5,29.93,ESE,106,1.0,7.0,86,0.01,,,0.01,19.0,meteohub,2013-06-18 16:02:00,
2013-06-18 12:07:00,66.9,63.3,29.93,SE,130,0.0,7.0,88,0.03,,,0.03,49.0,meteohub,2013-06-18 16:07:00,
2013-06-18 12:12:00,66.4,63.3,29.93,SE,141,0.0,7.0,90,0.06,,,0.06,88.0,meteohub,2013-06-18 16:12:00,
2013-06-18 12:17:00,66.0,63.7,29.93,SE,141,0.0,3.0,92,0.09,,,0.09,100.0,meteohub,2013-06-18 16:17:00,
2013-06-18 12:22:00,65.7,63.3,29.93,SE,141,0.0,3.0,92,0.11,,,0.11,56.0,meteohub,2013-06-18 16:22:00,
2013-06-18 12:27:00,65.5,63.3,29.93,SE,141,0.0,1.0,93,0.15,,,0.15,69.0,meteohub,2013-06-18 16:27:00,
2013-06-18 12:32:00,65.1,63.0,29.93,SSE,166,0.0,2.0,93,0.17,,,0.17,90.0,meteohub,2013-06-18 16:32:00,
2013-06-18 12:37:00,64.8,63.0,29.93,SE,130,0.0,3.0,94,0.19,,,0.19,72.0,meteohub,2013-06-18 16:37:00,
2013-06-18 12:42:00,64.4,62.4,29.93,South,185,0.0,3.0,93,0.21,,,0.21,58.0,meteohub,2013-06-18 16:42:00,
2013-06-18 12:47:00,64.0,62.2,29.93,ENE,76,0.0,3.0,94,0.23,,,0.23,86.0,meteohub,2013-06-18 16:47:00,
2013-06-18 12:52:00,63.9,62.1,29.92,ESE,107,0.0,5.0,94,0.25,,,0.25,352.0,meteohub,2013-06-18 16:52:00,
2013-06-18 12:57:00,63.7,62.2,29.92,SW,221,1.0,5.0,95,0.25,,,0.26,367.0,meteohub,2013-06-18 16:57:00,
2013-06-18 13:02:00,63.7,61.9,29.92,ESE,111,0.0,5.0,94,0.25,,,0.27,188.0,meteohub,2013-06-18 17:02:00,
2013-06-18 13:07:00,63.3,61.5,29.92,West,277,0.0,4.0,94,0.24,,,0.28,137.0,meteohub,2013-06-18 17:07:00,
2013-06-18 13:12:00,63.0,60.6,29.91,ESE,104,0.0,6.0,92,0.22,,,0.29,116.0,meteohub,2013-06-18 17:12:00,
2013-06-18 13:17:00,62.8,60.8,29.92,SSW,193,0.0,6.0,93,0.19,,,0.29,97.0,meteohub,2013-06-18 17:17:00,
2013-06-18 13:22:00,62.4,60.4,29.92,East,92,0.0,6.0,93,0.16,,,0.29,88.0,meteohub,2013-06-18 17:22:00,
2013-06-18 13:27:00,62.4,60.6,29.91,SSW,198,0.0,5.0,94,0.15,,,0.30,153.0,meteohub,2013-06-18 17:27:00,
2013-06-18 13:32:00,62.4,60.6,29.91,East,98,0.0,4.0,94,0.12,,,0.30,246.0,meteohub,2013-06-18 17:32:00,
2013-06-18 13:37:00,62.4,61.0,29.91,ESE,115,4.0,4.0,95,0.10,,,0.30,285.0,meteohub,2013-06-18 17:37:00,
2013-06-18 13:42:00,62.8,61.3,29.90,SSW,207,0.0,4.0,95,0.08,,,0.30,185.0,meteohub,2013-06-18 17:42:00,
2013-06-18 13:47:00,62.8,61.0,29.91,SE,146,0.0,5.0,94,0.06,,,0.30,74.0,meteohub,2013-06-18 17:47:00,
2013-06-18 13:52:00,62.8,61.0,29.91,NW,319,0.0,7.0,94,0.05,,,0.30,88.0,meteohub,2013-06-18 17:52:00,
2013-06-18 13:57:00,62.8,61.0,29.90,East,86,0.0,7.0,94,0.03,,,0.30,155.0,meteohub,2013-06-18 17:57:00,
2013-06-18 14:02:00,63.0,61.5,29.90,East,85,2.0,2.0,95,0.02,,,0.30,283.0,meteohub,2013-06-18 18:02:00,
2013-06-18 14:07:00,63.1,61.7,29.90,East,99,1.0,3.0,95,0.01,,,0.30,325.0,meteohub,2013-06-18 18:07:00,
2013-06-18 14:12:00,63.5,62.4,29.89,ESE,113,1.0,3.0,96,0.01,,,0.30,357.0,meteohub,2013-06-18 18:12:00,
2013-06-18 14:17:00,64.0,62.6,29.89,SE,132,0.0,4.0,95,0.01,,,0.30,429.0,meteohub,2013-06-18 18:17:00,
2013-06-18 14:22:00,64.6,63.1,29.90,East,94,0.0,4.0,95,0.01,,,0.30,424.0,meteohub,2013-06-18 18:22:00,
2013-06-18 14:27:00,64.9,63.1,29.89,WSW,240,0.0,10.0,94,0.00,,,0.30,355.0,meteohub,2013-06-18 18:27:00,
2013-06-18 14:32:00,65.1,62.8,29.90,NE,42,1.0,10.0,92,0.00,,,0.30,306.0,meteohub,2013-06-18 18:32:00,
2013-06-18 14:37:00,65.5,63.3,29.90,ENE,74,0.0,10.0,93,0.00,,,0.30,345.0,meteohub,2013-06-18 18:37:00,
2013-06-18 14:42:00,65.7,63.3,29.90,NNE,30,3.0,9.0,92,0.00,,,0.30,313.0,meteohub,2013-06-18 18:42:00,
2013-06-18 14:47:00,65.7,62.6,29.90,NE,36,0.0,7.0,90,0.00,,,0.30,225.0,meteohub,2013-06-18 18:47:00,
2013-06-18 14:52:00,65.7,63.3,29.90,SSE,163,3.0,8.0,92,0.00,,,0.30,237.0,meteohub,2013-06-18 18:52:00,
2013-06-18 14:57:00,65.7,63.3,29.90,ESE,113,0.0,8.0,92,0.00,,,0.30,221.0,meteohub,2013-06-18 18:57:00,
2013-06-18 15:02:00,65.5,62.2,29.90,ENE,78,0.0,8.0,89,0.00,,,0.30,246.0,meteohub,2013-06-18 19:02:00,
2013-06-18 15:07:00,65.5,62.2,29.89,NE,49,0.0,8.0,89,0.00,,,0.30,297.0,meteohub,2013-06-18 19:07:00,
2013-06-18 15:12:00,65.5,62.4,29.89,NE,42,2.0,8.0,90,0.00,,,0.30,283.0,meteohub,2013-06-18 19:12:00,
2013-06-18 15:17:00,65.5,61.5,29.90,ENE,61,0.0,8.0,87,0.00,,,0.30,251.0,meteohub,2013-06-18 19:17:00,
2013-06-18 15:22:00,65.3,60.6,29.89,ENE,57,3.0,7.0,85,0.00,,,0.30,251.0,meteohub,2013-06-18 19:22:00,
2013-06-18 15:27:00,65.1,61.2,29.89,ENE,75,0.0,9.0,87,0.00,,,0.30,257.0,meteohub,2013-06-18 19:27:00,
2013-06-18 15:32:00,65.1,60.8,29.89,ESE,117,5.0,9.0,86,0.00,,,0.30,218.0,meteohub,2013-06-18 19:32:00,
2013-06-18 15:37:00,64.9,61.0,29.89,NE,43,1.0,7.0,87,0.00,,,0.30,169.0,meteohub,2013-06-18 19:37:00,
2013-06-18 15:42:00,64.8,60.4,29.88,ENE,67,0.0,9.0,86,0.00,,,0.30,142.0,meteohub,2013-06-18 19:42:00,
2013-06-18 15:47:00,64.6,60.6,29.88,NE,40,3.0,9.0,87,0.00,,,0.30,169.0,meteohub,2013-06-18 19:47:00,
2013-06-18 15:52:00,64.6,59.9,29.88,ESE,119,0.0,9.0,85,0.00,,,0.30,185.0,meteohub,2013-06-18 19:52:00,
2013-06-18 15:57:00,64.6,61.0,29.89,ENE,68,7.0,7.0,88,0.00,,,0.30,167.0,meteohub,2013-06-18 19:57:00,
2013-06-18 16:02:00,64.6,60.3,29.89,NNE,32,1.0,7.0,86,0.00,,,0.30,163.0,meteohub,2013-06-18 20:02:00,
2013-06-18 16:07:00,64.6,60.6,29.89,ENE,77,2.0,7.0,87,0.00,,,0.30,162.0,meteohub,2013-06-18 20:07:00,
2013-06-18 16:12:00,64.6,61.0,29.89,North,5,0.0,8.0,88,0.00,,,0.30,171.0,meteohub,2013-06-18 20:12:00,
2013-06-18 16:17:00,64.6,60.6,29.89,NE,34,4.0,8.0,87,0.00,,,0.30,135.0,meteohub,2013-06-18 20:17:00,
2013-06-18 16:22:00,64.6,61.3,29.89,ESE,104,2.0,8.0,89,0.00,,,0.30,116.0,meteohub,2013-06-18 20:22:00,
2013-06-18 16:27:00,64.6,61.0,29.89,ESE,106,0.0,6.0,88,0.00,,,0.30,127.0,meteohub,2013-06-18 20:27:00,
2013-06-18 16:32:00,64.6,60.3,29.89,NE,47,0.0,7.0,86,0.00,,,0.30,120.0,meteohub,2013-06-18 20:32:00,
2013-06-18 16:37:00,64.6,59.7,29.90,ENE,59,0.0,7.0,84,0.00,,,0.30,100.0,meteohub,2013-06-18 20:37:00,
2013-06-18 16:42:00,64.6,60.3,29.90,SE,136,0.0,5.0,86,0.00,,,0.30,102.0,meteohub,2013-06-18 20:42:00,
2013-06-18 16:47:00,64.2,60.6,29.91,SE,130,2.0,5.0,88,0.00,,,0.30,102.0,meteohub,2013-06-18 20:47:00,
2013-06-18 16:53:00,64.2,60.3,29.91,NE,42,2.0,4.0,87,0.00,,,0.30,98.0,meteohub,2013-06-18 20:53:00,
2013-06-18 16:58:00,64.0,59.2,29.91,SE,136,0.0,6.0,84,0.00,,,0.30,93.0,meteohub,2013-06-18 20:58:00,
2013-06-18 17:03:00,64.0,58.5,29.91,NE,49,2.0,8.0,82,0.00,,,0.30,76.0,meteohub,2013-06-18 21:03:00,
2013-06-18 17:08:00,63.9,59.5,29.91,ENE,63,0.0,8.0,86,0.00,,,0.30,76.0,meteohub,2013-06-18 21:08:00,
2013-06-18 17:13:00,63.7,59.4,29.92,ESE,110,0.0,8.0,86,0.00,,,0.30,77.0,meteohub,2013-06-18 21:13:00,
2013-06-18 17:18:00,63.5,58.8,29.92,ENE,63,3.0,6.0,85,0.00,,,0.30,56.0,meteohub,2013-06-18 21:18:00,
2013-06-18 17:23:00,63.3,58.8,29.92,NE,49,1.0,6.0,85,0.00,,,0.30,60.0,meteohub,2013-06-18 21:23:00,
2013-06-18 17:28:00,63.1,58.8,29.91,ESE,116,1.0,6.0,86,0.00,,,0.30,93.0,meteohub,2013-06-18 21:28:00,
2013-06-18 17:33:00,63.1,58.8,29.91,East,85,0.0,6.0,86,0.00,,,0.30,127.0,meteohub,2013-06-18 21:33:00,
2013-06-18 17:38:00,63.1,58.6,29.91,ESE,110,1.0,6.0,85,0.00,,,0.30,134.0,meteohub,2013-06-18 21:38:00,
2013-06-18 17:43:00,63.1,58.6,29.91,NNE,24,0.0,6.0,85,0.00,,,0.30,130.0,meteohub,2013-06-18 21:43:00,
2013-06-18 17:48:00,63.3,58.5,29.91,SE,132,1.0,4.0,84,0.00,,,0.30,132.0,meteohub,2013-06-18 21:48:00,
2013-06-18 17:53:00,63.3,58.8,29.91,ESE,117,2.0,8.0,85,0.00,,,0.30,130.0,meteohub,2013-06-18 21:53:00,
2013-06-18 17:59:00,63.3,59.0,29.91,East,101,6.0,8.0,86,0.00,,,0.30,111.0,meteohub,2013-06-18 21:59:00,
2013-06-18 18:04:00,63.1,57.6,29.91,NE,38,0.0,8.0,82,0.00,,,0.30,109.0,meteohub,2013-06-18 22:04:00,
2013-06-18 18:09:00,63.0,57.0,29.92,NE,46,1.0,7.0,81,0.00,,,0.30,95.0,meteohub,2013-06-18 22:09:00,
2013-06-18 18:14:00,62.8,57.2,29.92,NE,53,1.0,7.0,82,0.00,,,0.30,88.0,meteohub,2013-06-18 22:14:00,
2013-06-18 18:19:00,62.8,57.9,29.92,ESE,103,0.0,7.0,84,0.00,,,0.30,84.0,meteohub,2013-06-18 22:19:00,
2013-06-18 18:24:00,62.4,57.2,29.92,ESE,105,5.0,7.0,83,0.00,,,0.30,88.0,meteohub,2013-06-18 22:24:00,
2013-06-18 18:29:00,62.4,57.9,29.93,NE,41,0.0,5.0,85,0.00,,,0.30,69.0,meteohub,2013-06-18 22:29:00,
2013-06-18 18:34:00,62.2,57.7,29.93,ESE,102,0.0,5.0,85,0.00,,,0.30,56.0,meteohub,2013-06-18 22:34:00,
2013-06-18 18:39:00,62.2,57.4,29.93,North,5,0.0,5.0,84,0.00,,,0.30,46.0,meteohub,2013-06-18 22:39:00,
2013-06-18 18:44:00,62.1,57.6,29.93,East,84,2.0,4.0,85,0.00,,,0.30,42.0,meteohub,2013-06-18 22:44:00,
2013-06-18 18:49:00,62.1,57.7,29.93,NNE,30,2.0,4.0,86,0.00,,,0.30,44.0,meteohub,2013-06-18 22:49:00,
2013-06-18 18:54:00,61.9,57.6,29.93,SSE,151,0.0,5.0,86,0.00,,,0.30,47.0,meteohub,2013-06-18 22:54:00,
2013-06-18 18:59:00,61.7,57.2,29.93,WSW,237,0.0,5.0,85,0.00,,,0.30,42.0,meteohub,2013-06-18 22:59:00,
2013-06-18 19:05:00,61.5,56.7,29.93,East,92,1.0,5.0,84,0.00,,,0.30,37.0,meteohub,2013-06-18 23:05:00,
2013-06-18 19:10:00,61.5,57.0,29.93,ESE,112,1.0,5.0,85,0.00,,,0.30,32.0,meteohub,2013-06-18 23:10:00,
2013-06-18 19:15:00,61.3,56.8,29.93,ESE,120,0.0,7.0,85,0.00,,,0.30,35.0,meteohub,2013-06-18 23:15:00,
2013-06-18 19:20:00,61.3,56.8,29.93,NE,37,0.0,7.0,85,0.00,,,0.30,28.0,meteohub,2013-06-18 23:20:00,
2013-06-18 19:25:00,61.3,57.2,29.92,SE,136,0.0,4.0,86,0.00,,,0.30,30.0,meteohub,2013-06-18 23:25:00,
2013-06-18 19:30:00,61.2,56.7,29.92,ENE,69,0.0,4.0,85,0.00,,,0.30,26.0,meteohub,2013-06-18 23:30:00,
2013-06-18 19:35:00,61.2,57.0,29.92,SE,128,1.0,7.0,86,0.00,,,0.30,19.0,meteohub,2013-06-18 23:35:00,
2013-06-18 19:40:00,61.2,56.7,29.93,ENE,76,1.0,7.0,85,0.00,,,0.30,12.0,meteohub,2013-06-18 23:40:00,
2013-06-18 19:45:00,61.2,57.0,29.93,East,94,0.0,7.0,86,0.00,,,0.30,9.0,meteohub,2013-06-18 23:45:00,
2013-06-18 19:50:00,61.2,57.0,29.93,ENE,67,2.0,2.0,86,0.00,,,0.30,9.0,meteohub,2013-06-18 23:50:00,
2013-06-18 19:55:00,61.2,57.0,29.93,ESE,117,0.0,5.0,86,0.00,,,0.30,11.0,meteohub,2013-06-18 23:55:00,
2013-06-18 20:00:00,61.2,57.0,29.92,NE,43,3.0,5.0,86,0.00,,,0.30,11.0,meteohub,2013-06-19 00:00:00,
2013-06-18 20:06:00,61.3,56.8,29.93,ENE,70,0.0,7.0,85,0.00,,,0.30,19.0,meteohub,2013-06-19 00:06:00,
2013-06-18 20:11:00,61.5,56.7,29.92,ESE,102,1.0,7.0,84,0.00,,,0.30,19.0,meteohub,2013-06-19 00:11:00,
2013-06-18 20:16:00,61.7,57.2,29.92,East,93,0.0,7.0,85,0.00,,,0.30,12.0,meteohub,2013-06-19 00:16:00,
2013-06-18 20:21:00,61.9,56.7,29.93,ENE,71,1.0,6.0,83,0.00,,,0.30,7.0,meteohub,2013-06-19 00:21:00,
2013-06-18 20:26:00,61.9,57.0,29.93,ENE,71,0.0,4.0,84,0.00,,,0.30,5.0,meteohub,2013-06-19 00:26:00,
2013-06-18 20:31:00,61.9,54.9,29.93,East,87,0.0,4.0,78,0.00,,,0.30,5.0,meteohub,2013-06-19 00:31:00,
2013-06-18 20:36:00,61.9,56.7,29.93,West,267,1.0,7.0,83,0.00,,,0.30,5.0,meteohub,2013-06-19 00:36:00,
2013-06-18 20:41:00,61.9,57.4,29.93,East,90,0.0,7.0,85,0.00,,,0.30,0.0,meteohub,2013-06-19 00:41:00,
2013-06-18 20:46:00,61.7,57.4,29.93,East,90,0.0,7.0,86,0.00,,,0.30,0.0,meteohub,2013-06-19 00:46:00,
2013-06-18 20:51:00,61.3,56.1,29.94,East,90,0.0,5.0,83,0.00,,,0.30,0.0,meteohub,2013-06-19 00:51:00,
2013-06-18 20:56:00,61.2,54.3,29.93,East,93,1.0,1.0,78,0.00,,,0.30,0.0,meteohub,2013-06-19 00:56:00,
2013-06-18 21:01:00,61.2,54.7,29.93,ENE,65,0.0,3.0,79,0.00,,,0.30,0.0,meteohub,2013-06-19 01:01:00,
2013-06-18 21:07:00,61.2,55.6,29.94,South,177,0.0,3.0,82,0.00,,,0.30,0.0,meteohub,2013-06-19 01:07:00,
2013-06-18 21:12:00,61.2,54.9,29.94,South,177,0.0,2.0,80,0.00,,,0.30,0.0,meteohub,2013-06-19 01:12:00,
2013-06-18 21:17:00,61.0,55.0,29.94,South,177,0.0,1.0,81,0.00,,,0.30,0.0,meteohub,2013-06-19 01:17:00,
2013-06-18 21:22:00,60.6,53.4,29.94,South,177,0.0,1.0,77,0.00,,,0.30,0.0,meteohub,2013-06-19 01:22:00,
2013-06-18 21:27:00,60.6,54.1,29.94,ESE,116,0.0,2.0,79,0.00,,,0.30,0.0,meteohub,2013-06-19 01:27:00,
2013-06-18 21:32:00,60.6,54.1,29.94,ESE,116,0.0,2.0,79,0.00,,,0.30,0.0,meteohub,2013-06-19 01:32:00,
2013-06-18 21:37:00,60.6,55.0,29.93,ESE,116,0.0,2.0,82,0.00,,,0.30,0.0,meteohub,2013-06-19 01:37:00,
2013-06-18 21:42:00,60.4,53.6,29.93,ESE,116,0.0,1.0,78,0.00,,,0.30,0.0,meteohub,2013-06-19 01:42:00,
2013-06-18 21:47:00,60.4,50.5,29.94,ESE,116,0.0,0.0,70,0.00,,,0.30,0.0,meteohub,2013-06-19 01:47:00,
2013-06-18 21:52:00,60.4,52.5,29.94,ESE,116,0.0,0.0,75,0.00,,,0.30,0.0,meteohub,2013-06-19 01:52:00,
2013-06-18 21:57:00,60.4,51.1,29.94,ESE,116,0.0,0.0,71,0.00,,,0.30,0.0,meteohub,2013-06-19 01:57:00,
2013-06-18 22:02:00,60.3,52.0,29.94,ESE,116,0.0,0.0,74,0.00,,,0.30,0.0,meteohub,2013-06-19 02:02:00,
2013-06-18 22:07:00,60.3,52.3,29.94,SE,128,0.0,1.0,75,0.00,,,0.30,0.0,meteohub,2013-06-19 02:07:00,
2013-06-18 22:12:00,60.3,50.9,29.94,SE,128,0.0,3.0,71,0.00,,,0.30,0.0,meteohub,2013-06-19 02:12:00,
2013-06-18 22:17:00,60.1,51.1,29.94,SE,128,0.0,3.0,72,0.00,,,0.30,0.0,meteohub,2013-06-19 02:17:00,
2013-06-18 22:22:00,59.9,50.9,29.95,SE,128,0.0,1.0,72,0.00,,,0.30,0.0,meteohub,2013-06-19 02:22:00,
2013-06-18 22:27:00,59.7,49.5,29.94,SE,128,0.0,2.0,69,0.00,,,0.30,0.0,meteohub,2013-06-19 02:27:00,
2013-06-18 22:32:00,59.7,50.0,29.95,SE,129,0.0,3.0,70,0.00,,,0.30,0.0,meteohub,2013-06-19 02:32:00,
2013-06-18 22:37:00,59.7,52.5,29.95,SE,129,0.0,3.0,77,0.00,,,0.30,0.0,meteohub,2013-06-19 02:37:00,
2013-06-18 22:42:00,59.5,49.8,29.95,SE,129,0.0,3.0,70,0.00,,,0.30,0.0,meteohub,2013-06-19 02:42:00,
2013-06-18 22:47:00,59.5,51.3,29.95,SE,129,0.0,1.0,74,0.00,,,0.30,0.0,meteohub,2013-06-19 02:47:00,
2013-06-18 22:52:00,59.4,51.4,29.95,SE,129,0.0,1.0,75,0.00,,,0.30,0.0,meteohub,2013-06-19 02:52:00,
2013-06-18 22:57:00,59.2,51.3,29.95,SE,129,0.0,1.0,75,0.00,,,0.30,0.0,meteohub,2013-06-19 02:57:00,
2013-06-18 23:02:00,59.0,51.8,29.95,SE,129,0.0,1.0,77,0.00,,,0.30,0.0,meteohub,2013-06-19 03:02:00,
2013-06-18 23:07:00,58.6,50.4,29.95,SE,129,0.0,1.0,74,0.00,,,0.30,0.0,meteohub,2013-06-19 03:07:00,
2013-06-18 23:12:00,58.6,50.7,29.95,SE,129,0.0,0.0,75,0.00,,,0.30,0.0,meteohub,2013-06-19 03:12:00,
2013-06-18 23:17:00,58.5,49.8,29.95,SE,129,0.0,1.0,73,0.00,,,0.30,0.0,meteohub,2013-06-19 03:17:00,
2013-06-18 23:22:00,58.3,49.6,29.95,SE,129,0.0,1.0,73,0.00,,,0.30,0.0,meteohub,2013-06-19 03:22:00,
2013-06-18 23:27:00,58.1,47.7,29.95,SE,129,0.0,1.0,68,0.00,,,0.30,0.0,meteohub,2013-06-19 03:27:00,
2013-06-18 23:32:00,58.1,49.8,29.95,SE,129,0.0,2.0,74,0.00,,,0.30,0.0,meteohub,2013-06-19 03:32:00,
2013-06-18 23:37:00,57.9,50.4,29.95,SE,129,0.0,2.0,76,0.00,,,0.30,0.0,meteohub,2013-06-19 03:37:00,
2013-06-18 23:42:00,57.9,48.9,29.95,SE,129,0.0,2.0,72,0.00,,,0.30,0.0,meteohub,2013-06-19 03:42:00,
2013-06-18 23:47:00,57.7,50.2,29.95,SE,129,0.0,1.0,76,0.00,,,0.30,0.0,meteohub,2013-06-19 03:47:00,
2013-06-18 23:52:00,57.7,49.1,29.95,East,98,1.0,2.0,73,0.00,,,0.30,0.0,meteohub,2013-06-19 03:52:00,
2013-06-18 23:57:00,57.7,49.5,29.95,East,96,0.0,2.0,74,0.00,,,0.30,0.0,meteohub,2013-06-19 03:57:00,